Time;durP1;ratioP1;P1;durP2;ratioP2;P2;SDS_P1;SDS_P2;PMS_P1;PMS_P2;Temp;Humidity;BMP_temperature;BMP_pressure;BME280_temperature;BME280_humidity;BME280_pressure;Samples;Min_cycle;Max_cycle;Signal;HPM_P1;HPM_P2
2022/03/26 00:00:13;;;;;;;15.25;6.57;;;7.20;59.20;;;;;;4990738;28;20144;-68
2022/03/26 00:02:40;;;;;;;15.40;7.13;;;7.10;59.30;;;;;;4993752;28;20057;-68
2022/03/26 00:05:09;;;;;;;16.70;7.55;;;7.10;59.30;;;;;;4994688;28;20042;-68
2022/03/26 00:07:37;;;;;;;16.95;7.28;;;7.10;59.40;;;;;;4998230;28;20415;-68
2022/03/26 00:10:07;;;;;;;15.35;7.25;;;7.10;59.30;;;;;;5001892;28;20042;-69
2022/03/26 00:12:33;;;;;;;21.40;7.75;;;7.00;59.40;;;;;;4999623;28;20053;-68
2022/03/26 00:15:00;;;;;;;19.48;8.43;;;7.00;59.50;;;;;;4991668;28;20049;-68
2022/03/26 00:17:28;;;;;;;14.68;6.63;;;6.90;59.70;;;;;;4998172;28;20082;-69
2022/03/26 00:19:55;;;;;;;19.23;7.05;;;6.80;59.80;;;;;;4998455;28;20061;-68
2022/03/26 00:22:24;;;;;;;18.38;7.95;;;6.80;59.80;;;;;;5001123;28;20046;-68
2022/03/26 00:24:51;;;;;;;14.40;6.93;;;6.80;60.00;;;;;;4980782;28;20045;-68
2022/03/26 00:27:18;;;;;;;14.55;5.50;;;6.80;59.90;;;;;;5000244;28;20046;-69
2022/03/26 00:29:46;;;;;;;15.07;7.25;;;6.80;59.90;;;;;;4999229;28;20042;-68
2022/03/26 00:32:14;;;;;;;15.32;6.00;;;6.70;60.00;;;;;;4999701;28;20053;-68
2022/03/26 00:34:40;;;;;;;17.20;6.90;;;6.70;60.10;;;;;;4996668;28;20137;-70
2022/03/26 00:37:07;;;;;;;16.52;7.47;;;6.70;60.20;;;;;;4998453;28;20055;-69
2022/03/26 00:39:38;;;;;;;18.45;6.97;;;6.60;60.30;;;;;;4995961;28;21464;-69
2022/03/26 00:42:08;;;;;;;16.48;6.60;;;6.60;60.40;;;;;;4997977;28;20050;-70
2022/03/26 00:44:36;;;;;;;14.57;5.85;;;6.50;60.60;;;;;;5001950;28;20048;-68
2022/03/26 00:47:03;;;;;;;21.40;8.65;;;6.50;60.70;;;;;;5000301;28;20495;-68
2022/03/26 00:49:30;;;;;;;20.10;8.52;;;6.50;60.60;;;;;;5001315;28;20046;-68
2022/03/26 00:51:57;;;;;;;19.85;8.18;;;6.40;60.80;;;;;;5001937;28;20041;-69
2022/03/26 00:54:25;;;;;;;19.90;8.32;;;6.40;60.70;;;;;;5003150;28;20380;-70
2022/03/26 00:56:53;;;;;;;13.27;6.97;;;6.40;60.80;;;;;;4999345;28;20037;-67
2022/03/26 00:59:20;;;;;;;15.88;6.35;;;6.40;60.80;;;;;;5001593;28;20142;-69
2022/03/26 01:01:48;;;;;;;16.00;7.15;;;6.30;61.10;;;;;;4998405;28;20042;-69
2022/03/26 01:04:15;;;;;;;17.85;7.55;;;6.40;61.10;;;;;;5001382;28;20038;-69
2022/03/26 01:06:42;;;;;;;15.32;6.95;;;6.30;61.20;;;;;;4995328;28;20056;-69
2022/03/26 01:09:09;;;;;;;17.13;7.40;;;6.30;61.20;;;;;;4994658;28;20060;-70
2022/03/26 01:11:36;;;;;;;17.58;7.05;;;6.30;61.30;;;;;;4992858;28;20041;-68
2022/03/26 01:14:05;;;;;;;14.00;7.47;;;6.30;61.20;;;;;;4994747;28;20150;-69
2022/03/26 01:16:32;;;;;;;16.50;6.95;;;6.30;61.30;;;;;;4994457;28;20050;-69
2022/03/26 01:18:59;;;;;;;13.50;6.82;;;6.20;61.30;;;;;;4997220;28;20073;-69
2022/03/26 01:21:26;;;;;;;18.02;6.35;;;6.20;61.50;;;;;;4999113;28;20046;-70
2022/03/26 01:23:53;;;;;;;16.58;6.28;;;6.20;61.50;;;;;;4980874;28;20573;-68
2022/03/26 01:26:20;;;;;;;21.65;6.57;;;6.20;61.50;;;;;;4996414;28;20411;-68
2022/03/26 01:28:47;;;;;;;15.93;6.15;;;6.10;61.70;;;;;;4997582;28;20507;-67
2022/03/26 01:31:19;;;;;;;15.02;6.40;;;6.10;61.80;;;;;;4996357;28;20052;-68
2022/03/26 01:33:48;;;;;;;14.13;5.28;;;6.00;61.80;;;;;;4997136;28;20041;-69
2022/03/26 01:36:16;;;;;;;17.70;7.18;;;6.00;62.00;;;;;;4997123;28;20046;-68
2022/03/26 01:38:43;;;;;;;15.57;6.43;;;6.00;62.10;;;;;;4997485;28;20440;-70
2022/03/26 01:41:10;;;;;;;19.73;6.90;;;6.00;62.30;;;;;;4996863;28;20054;-67
2022/03/26 01:43:37;;;;;;;15.90;6.35;;;5.90;62.40;;;;;;4997792;28;20038;-69
2022/03/26 01:46:04;;;;;;;13.60;5.07;;;5.90;62.40;;;;;;5000170;28;20048;-69
2022/03/26 01:48:33;;;;;;;13.70;6.38;;;5.90;62.50;;;;;;4999354;28;20041;-69
2022/03/26 01:51:14;;;;;;;14.43;5.80;;;5.80;62.70;;;;;;4999037;28;20038;-69
2022/03/26 01:53:42;;;;;;;20.23;8.18;;;5.80;62.80;;;;;;4996063;28;20550;-69
2022/03/26 01:56:10;;;;;;;16.65;7.15;;;5.80;62.80;;;;;;4998947;28;20519;-68
2022/03/26 01:58:37;;;;;;;14.80;5.88;;;5.70;62.80;;;;;;4997193;28;20048;-68
2022/03/26 02:01:04;;;;;;;17.17;7.75;;;5.70;62.80;;;;;;4997027;28;20133;-68
2022/03/26 02:03:32;;;;;;;15.43;6.57;;;5.70;62.80;;;;;;4999461;28;20042;-68
2022/03/26 02:05:59;;;;;;;15.68;6.72;;;5.70;62.80;;;;;;4997269;28;20101;-68
2022/03/26 02:08:26;;;;;;;15.63;7.47;;;5.60;62.80;;;;;;5000747;28;20138;-67
2022/03/26 02:10:54;;;;;;;16.90;7.72;;;5.60;62.90;;;;;;4999538;28;20084;-69
2022/03/26 02:13:21;;;;;;;15.48;6.07;;;5.60;63.10;;;;;;5000571;28;20483;-67
2022/03/26 02:15:48;;;;;;;17.08;5.70;;;5.50;63.40;;;;;;4998579;28;20061;-69
2022/03/26 02:18:15;;;;;;;12.80;6.40;;;5.50;63.30;;;;;;5000018;28;20050;-67
2022/03/26 02:20:45;;;;;;;14.45;6.57;;;5.40;63.50;;;;;;4993733;28;20434;-69
2022/03/26 02:23:12;;;;;;;13.73;6.82;;;5.40;63.50;;;;;;5000992;28;20038;-69
2022/03/26 02:25:39;;;;;;;14.50;6.50;;;5.40;63.40;;;;;;5000432;28;20627;-69
2022/03/26 02:28:07;;;;;;;12.13;5.45;;;5.50;63.40;;;;;;5000926;28;20050;-68
2022/03/26 02:30:34;;;;;;;16.55;6.30;;;5.50;63.50;;;;;;5001462;28;20056;-70
2022/03/26 02:33:01;;;;;;;14.13;5.93;;;5.40;63.70;;;;;;5001191;28;20381;-68
2022/03/26 02:35:28;;;;;;;14.38;6.28;;;5.40;63.80;;;;;;4999909;28;20054;-70
2022/03/26 02:37:57;;;;;;;18.95;6.28;;;5.40;64.00;;;;;;5000812;28;20129;-68
2022/03/26 02:40:23;;;;;;;19.05;5.88;;;5.40;64.10;;;;;;4991767;28;20065;-69
2022/03/26 02:42:50;;;;;;;13.70;6.35;;;5.40;64.10;;;;;;4997932;28;20073;-69
2022/03/26 02:45:17;;;;;;;14.10;6.53;;;5.30;64.10;;;;;;4999345;28;20160;-69
2022/03/26 02:47:50;;;;;;;12.70;5.38;;;5.30;64.30;;;;;;4997081;28;20057;-69
2022/03/26 02:50:18;;;;;;;15.77;5.55;;;5.20;64.30;;;;;;5001524;28;20041;-69
2022/03/26 02:52:48;;;;;;;15.77;7.10;;;5.20;64.50;;;;;;5002837;28;20072;-70
2022/03/26 02:55:16;;;;;;;13.77;6.40;;;5.20;64.60;;;;;;4997544;28;20181;-70
2022/03/26 02:57:46;;;;;;;12.90;5.30;;;5.20;64.60;;;;;;5001850;28;20068;-69
2022/03/26 03:00:14;;;;;;;13.35;6.22;;;5.20;64.70;;;;;;4998280;28;20054;-69
2022/03/26 03:02:42;;;;;;;15.25;6.05;;;5.20;64.70;;;;;;5001507;28;20531;-70
2022/03/26 03:05:09;;;;;;;14.90;5.40;;;5.20;64.80;;;;;;5001940;28;20155;-70
2022/03/26 03:07:37;;;;;;;11.90;6.32;;;5.10;64.80;;;;;;5001179;28;20137;-70
2022/03/26 03:10:05;;;;;;;14.80;6.55;;;5.10;64.90;;;;;;4997509;28;20129;-70
2022/03/26 03:12:33;;;;;;;13.68;6.38;;;5.00;65.00;;;;;;4994411;28;20046;-69
2022/03/26 03:15:00;;;;;;;13.93;6.03;;;5.00;65.00;;;;;;5001422;28;20046;-68
2022/03/26 03:17:27;;;;;;;17.60;6.95;;;5.00;64.90;;;;;;5000777;28;20044;-69
2022/03/26 03:19:54;;;;;;;14.55;6.57;;;5.00;65.00;;;;;;4995576;28;20073;-69
2022/03/26 03:22:21;;;;;;;16.33;6.90;;;5.00;65.00;;;;;;5001337;28;20039;-68
2022/03/26 03:24:48;;;;;;;14.38;6.05;;;5.00;65.00;;;;;;5002417;28;20488;-70
2022/03/26 03:27:15;;;;;;;15.93;5.75;;;5.00;65.10;;;;;;5004168;28;20046;-68
2022/03/26 03:29:43;;;;;;;13.15;5.93;;;5.00;65.00;;;;;;5003285;28;20042;-69
2022/03/26 03:32:11;;;;;;;11.27;5.90;;;5.00;65.10;;;;;;5003307;28;20177;-69
2022/03/26 03:34:38;;;;;;;17.00;5.40;;;4.90;65.30;;;;;;5003021;28;20056;-69
2022/03/26 03:37:05;;;;;;;14.30;6.05;;;4.90;65.30;;;;;;5000587;28;20400;-69
2022/03/26 03:39:32;;;;;;;14.32;5.68;;;4.80;65.40;;;;;;5002814;28;20089;-69
2022/03/26 03:41:59;;;;;;;13.20;5.40;;;4.80;65.40;;;;;;5003392;28;20465;-70
2022/03/26 03:44:26;;;;;;;15.50;5.57;;;4.70;65.60;;;;;;5002635;28;20050;-69
2022/03/26 03:46:55;;;;;;;13.65;5.80;;;4.80;65.60;;;;;;4999002;28;20042;-70
2022/03/26 03:49:22;;;;;;;13.57;4.50;;;4.80;65.50;;;;;;4990442;28;20057;-69
2022/03/26 03:51:49;;;;;;;10.93;5.35;;;4.70;65.50;;;;;;4993474;28;20079;-69
2022/03/26 03:54:16;;;;;;;14.85;5.68;;;4.70;65.60;;;;;;4998016;28;20790;-67
2022/03/26 03:56:43;;;;;;;14.13;6.43;;;4.70;65.60;;;;;;4991663;28;20112;-69
2022/03/26 03:59:12;;;;;;;13.38;5.25;;;4.60;65.80;;;;;;4994176;28;20487;-68
2022/03/26 04:01:39;;;;;;;12.73;5.47;;;4.60;65.90;;;;;;4995013;28;20038;-68
2022/03/26 04:04:07;;;;;;;14.02;5.10;;;4.60;66.00;;;;;;5003054;28;20527;-69
2022/03/26 04:06:34;;;;;;;14.55;5.80;;;4.60;65.90;;;;;;5003718;28;20045;-69
2022/03/26 04:09:01;;;;;;;14.77;5.53;;;4.60;66.00;;;;;;5003080;28;20045;-69
2022/03/26 04:11:28;;;;;;;11.25;6.18;;;4.60;65.90;;;;;;4996467;28;20050;-69
2022/03/26 04:13:55;;;;;;;14.32;6.05;;;4.60;66.00;;;;;;5004507;28;20052;-69
2022/03/26 04:16:23;;;;;;;14.52;5.72;;;4.60;66.00;;;;;;5003691;28;20137;-69
2022/03/26 04:18:50;;;;;;;15.07;6.25;;;4.50;66.10;;;;;;5002895;28;20582;-69
2022/03/26 04:21:19;;;;;;;11.75;5.68;;;4.50;66.20;;;;;;5000346;28;20134;-69
2022/03/26 04:23:46;;;;;;;12.60;5.95;;;4.40;66.20;;;;;;4995136;28;20073;-69
2022/03/26 04:26:14;;;;;;;17.85;5.97;;;4.40;66.20;;;;;;5000407;28;20070;-71
2022/03/26 04:28:40;;;;;;;17.65;6.13;;;4.50;66.30;;;;;;5000723;28;20042;-68
2022/03/26 04:31:08;;;;;;;14.93;5.90;;;4.40;66.40;;;;;;5000189;28;20121;-69
2022/03/26 04:33:35;;;;;;;18.48;5.95;;;4.40;66.40;;;;;;4981667;28;20058;-69
2022/03/26 04:36:02;;;;;;;12.05;6.10;;;4.40;66.40;;;;;;4998497;28;20618;-68
2022/03/26 04:38:30;;;;;;;12.30;5.88;;;4.40;66.40;;;;;;5000078;28;20105;-68
2022/03/26 04:40:57;;;;;;;9.00;5.28;;;4.40;66.50;;;;;;4997349;28;20038;-69
2022/03/26 04:43:24;;;;;;;14.32;5.95;;;4.30;66.60;;;;;;4999424;28;20070;-69
2022/03/26 04:45:51;;;;;;;18.25;6.45;;;4.30;66.50;;;;;;4999988;28;20062;-69
2022/03/26 04:48:18;;;;;;;14.35;5.60;;;4.30;66.70;;;;;;4999116;28;20042;-68
2022/03/26 04:50:45;;;;;;;15.55;5.95;;;4.30;66.70;;;;;;4999944;28;20053;-68
2022/03/26 04:53:13;;;;;;;14.90;5.28;;;4.30;66.80;;;;;;4999813;28;20125;-69
2022/03/26 04:55:42;;;;;;;9.98;5.45;;;4.30;66.80;;;;;;4999221;28;20385;-68
2022/03/26 04:58:09;;;;;;;13.20;5.93;;;4.20;66.90;;;;;;4997703;28;20133;-69
2022/03/26 05:00:36;;;;;;;12.57;6.20;;;4.20;66.90;;;;;;4997607;28;20048;-69
2022/03/26 05:03:03;;;;;;;12.52;5.97;;;4.20;67.00;;;;;;4999391;28;20043;-69
2022/03/26 05:05:30;;;;;;;10.93;5.85;;;4.20;67.10;;;;;;5001904;28;20042;-69
2022/03/26 05:07:59;;;;;;;13.75;5.72;;;4.20;67.10;;;;;;5003927;28;20047;-69
2022/03/26 05:10:28;;;;;;;10.70;5.25;;;4.10;67.10;;;;;;5002732;28;20046;-69
2022/03/26 05:12:58;;;;;;;10.65;4.45;;;4.10;67.30;;;;;;5002856;28;20042;-69
2022/03/26 05:15:27;;;;;;;11.00;5.15;;;4.10;67.50;;;;;;4991012;28;20056;-69
2022/03/26 05:17:56;;;;;;;11.75;5.30;;;4.10;67.50;;;;;;5002025;28;20125;-69
2022/03/26 05:20:24;;;;;;;15.23;5.68;;;4.10;67.50;;;;;;5003034;28;20042;-69
2022/03/26 05:22:52;;;;;;;14.10;4.95;;;4.10;67.50;;;;;;5002217;28;20160;-69
2022/03/26 05:25:19;;;;;;;12.63;6.20;;;4.10;67.50;;;;;;5002945;28;20061;-69
2022/03/26 05:27:47;;;;;;;12.63;4.95;;;4.00;67.60;;;;;;5002077;28;20045;-69
2022/03/26 05:30:19;;;;;;;14.13;6.07;;;4.00;67.60;;;;;;5000887;28;20034;-69
2022/03/26 05:32:46;;;;;;;11.75;5.25;;;4.00;67.80;;;;;;5000250;28;20049;-69
2022/03/26 05:35:14;;;;;;;9.90;4.78;;;4.00;67.80;;;;;;5000452;28;20053;-69
2022/03/26 05:37:42;;;;;;;14.13;6.55;;;4.00;67.70;;;;;;5000930;28;20053;-68
2022/03/26 05:40:10;;;;;;;17.90;5.97;;;4.10;67.70;;;;;;4995674;28;20057;-69
2022/03/26 05:42:37;;;;;;;12.18;5.55;;;4.10;67.80;;;;;;4994739;28;20066;-68
2022/03/26 05:45:05;;;;;;;14.80;7.13;;;4.00;68.10;;;;;;4997487;28;20054;-69
2022/03/26 05:47:34;;;;;;;16.67;5.57;;;4.10;68.10;;;;;;4995351;28;21710;-69
2022/03/26 05:50:03;;;;;;;14.65;5.72;;;4.10;68.10;;;;;;4992287;28;20053;-68
2022/03/26 05:52:30;;;;;;;15.45;6.75;;;4.00;68.20;;;;;;4994507;28;20479;-68
2022/03/26 05:54:57;;;;;;;11.88;5.00;;;4.10;68.30;;;;;;4995175;28;20052;-68
2022/03/26 05:57:24;;;;;;;13.80;5.43;;;4.10;68.30;;;;;;4997096;28;20046;-68
2022/03/26 05:59:51;;;;;;;13.38;5.45;;;4.00;68.40;;;;;;4995973;28;20478;-69
2022/03/26 06:02:18;;;;;;;14.70;5.68;;;4.10;68.40;;;;;;4992177;28;20040;-69
2022/03/26 06:04:46;;;;;;;9.25;4.68;;;4.10;68.40;;;;;;4993366;28;20038;-70
2022/03/26 06:07:13;;;;;;;13.13;6.47;;;4.10;68.40;;;;;;4993244;28;20049;-69
2022/03/26 06:09:40;;;;;;;16.17;7.13;;;4.10;68.50;;;;;;4990777;28;20069;-70
2022/03/26 06:12:08;;;;;;;15.65;6.45;;;4.20;68.60;;;;;;4992778;28;20516;-69
2022/03/26 06:14:35;;;;;;;16.35;6.82;;;4.20;68.60;;;;;;4992758;28;20072;-68
2022/03/26 06:17:03;;;;;;;17.08;6.45;;;4.20;68.70;;;;;;4991584;28;20133;-69
2022/03/26 06:19:30;;;;;;;16.17;6.40;;;4.20;68.70;;;;;;4992712;28;20069;-69
2022/03/26 06:21:59;;;;;;;14.27;6.60;;;4.20;68.60;;;;;;4992458;28;20049;-69
2022/03/26 06:24:26;;;;;;;15.13;6.32;;;4.20;68.60;;;;;;4995112;28;20053;-69
2022/03/26 06:26:53;;;;;;;15.38;5.90;;;4.30;68.70;;;;;;4996991;28;20050;-68
2022/03/26 06:29:20;;;;;;;11.68;5.85;;;4.40;68.60;;;;;;5000280;28;20121;-70
2022/03/26 06:31:48;;;;;;;13.25;6.38;;;4.40;68.60;;;;;;4996992;28;20443;-70
2022/03/26 06:34:14;;;;;;;13.60;5.40;;;4.50;68.60;;;;;;4997158;28;20034;-69
2022/03/26 06:36:41;;;;;;;15.80;6.13;;;4.60;68.50;;;;;;4997186;28;20120;-69
2022/03/26 06:39:10;;;;;;;15.68;6.00;;;4.70;68.40;;;;;;4995363;28;20407;-69
2022/03/26 06:41:39;;;;;;;18.00;6.45;;;4.70;68.20;;;;;;4993267;28;20057;-70
2022/03/26 06:44:07;;;;;;;15.88;6.70;;;4.80;68.20;;;;;;4997102;28;20034;-69
2022/03/26 06:46:34;;;;;;;12.98;6.15;;;5.00;68.00;;;;;;5003820;28;20068;-69
2022/03/26 06:49:02;;;;;;;14.10;6.40;;;5.00;67.80;;;;;;4997176;28;20504;-69
2022/03/26 06:51:29;;;;;;;16.50;6.45;;;5.10;67.80;;;;;;5001127;28;20042;-68
2022/03/26 06:53:55;;;;;;;15.85;6.97;;;5.20;67.50;;;;;;4998264;28;20506;-69
2022/03/26 06:56:24;;;;;;;18.13;6.38;;;5.30;67.40;;;;;;4997729;28;20054;-68
2022/03/26 06:58:51;;;;;;;16.95;6.18;;;5.40;67.40;;;;;;4997075;28;20053;-70
2022/03/26 07:01:18;;;;;;;14.05;7.28;;;5.60;67.20;;;;;;5001409;28;20046;-69
2022/03/26 07:03:45;;;;;;;18.40;6.80;;;5.60;66.80;;;;;;5002958;28;20377;-68
2022/03/26 07:06:13;;;;;;;16.30;7.18;;;5.70;66.20;;;;;;5004744;28;20048;-70
2022/03/26 07:08:40;;;;;;;15.60;6.20;;;5.80;65.80;;;;;;5000097;28;20038;-70
2022/03/26 07:11:07;;;;;;;13.00;7.13;;;5.80;65.50;;;;;;5001117;28;20111;-70
2022/03/26 07:13:35;;;;;;;15.27;7.78;;;5.90;65.40;;;;;;5002825;28;20038;-69
2022/03/26 07:16:02;;;;;;;15.32;6.85;;;6.00;65.30;;;;;;4997506;28;20128;-69
2022/03/26 07:18:30;;;;;;;12.48;6.22;;;6.00;65.40;;;;;;4997480;28;20045;-69
2022/03/26 07:21:00;;;;;;;14.80;6.97;;;6.10;65.30;;;;;;4998267;28;20120;-69
2022/03/26 07:23:27;;;;;;;18.13;7.68;;;6.10;65.10;;;;;;4997692;28;20050;-69
2022/03/26 07:25:55;;;;;;;17.27;7.75;;;6.10;65.20;;;;;;5000128;28;20129;-68
2022/03/26 07:28:23;;;;;;;14.73;6.25;;;6.20;65.20;;;;;;4999458;28;20046;-69
2022/03/26 07:30:52;;;;;;;12.98;6.22;;;6.20;65.40;;;;;;4999251;28;20139;-68
2022/03/26 07:33:19;;;;;;;17.92;7.85;;;6.20;65.20;;;;;;4998093;28;20133;-69
2022/03/26 07:35:46;;;;;;;15.35;7.05;;;6.30;65.50;;;;;;4996677;28;20050;-68
2022/03/26 07:38:14;;;;;;;15.90;6.95;;;6.40;65.30;;;;;;4996316;28;20136;-70
2022/03/26 07:40:41;;;;;;;14.27;7.13;;;6.40;65.30;;;;;;4997286;28;20042;-69
2022/03/26 07:43:08;;;;;;;15.77;8.15;;;6.50;65.40;;;;;;4997857;28;20050;-69
2022/03/26 07:45:35;;;;;;;14.50;6.13;;;6.50;65.50;;;;;;4982028;28;20076;-70
2022/03/26 07:48:05;;;;;;;19.00;7.93;;;6.70;65.60;;;;;;4991909;28;21686;-69
2022/03/26 07:50:32;;;;;;;20.23;8.45;;;6.90;65.40;;;;;;4994973;28;20473;-70
2022/03/26 07:52:59;;;;;;;17.42;8.00;;;7.00;65.20;;;;;;4994650;28;20573;-68
2022/03/26 07:55:26;;;;;;;21.92;7.97;;;7.20;65.00;;;;;;4995146;28;20489;-68
2022/03/26 07:57:53;;;;;;;15.00;7.13;;;7.30;64.80;;;;;;4995754;28;20090;-68
2022/03/26 08:00:20;;;;;;;16.88;7.85;;;7.40;64.60;;;;;;4974789;28;20777;-68
2022/03/26 08:02:47;;;;;;;19.65;7.22;;;7.60;64.60;;;;;;4997086;28;20150;-68
2022/03/26 08:05:16;;;;;;;21.40;8.75;;;7.70;64.50;;;;;;4996256;28;20050;-68
2022/03/26 08:07:43;;;;;;;17.73;7.38;;;7.70;64.40;;;;;;4992541;28;20476;-69
2022/03/26 08:10:11;;;;;;;19.42;7.88;;;7.90;64.40;;;;;;4996019;28;20048;-69
2022/03/26 08:12:38;;;;;;;17.92;8.65;;;8.00;64.30;;;;;;4994823;28;20049;-70
2022/03/26 08:15:06;;;;;;;24.17;8.73;;;8.10;64.20;;;;;;4987302;28;20042;-69
2022/03/26 08:17:34;;;;;;;17.98;8.55;;;8.20;63.90;;;;;;4995574;28;20045;-69
2022/03/26 08:20:01;;;;;;;20.10;8.35;;;8.30;63.80;;;;;;4996179;28;20057;-69
2022/03/26 08:22:29;;;;;;;18.05;7.97;;;8.50;63.80;;;;;;4996292;28;20045;-70
2022/03/26 08:24:56;;;;;;;18.63;7.80;;;8.60;63.90;;;;;;4997550;28;20044;-69
2022/03/26 08:27:23;;;;;;;17.75;7.78;;;8.70;63.60;;;;;;4994722;28;20125;-70
2022/03/26 08:29:52;;;;;;;20.98;9.35;;;8.90;63.50;;;;;;4997301;28;20039;-70
2022/03/26 08:32:19;;;;;;;20.52;8.05;;;9.10;62.60;;;;;;4999182;28;20064;-69
2022/03/26 08:34:46;;;;;;;23.85;8.55;;;9.20;63.00;;;;;;4998925;28;20121;-69
2022/03/26 08:37:13;;;;;;;20.45;8.85;;;9.20;62.60;;;;;;4994829;28;20111;-70
2022/03/26 08:39:42;;;;;;;22.77;9.70;;;9.40;62.50;;;;;;4995293;28;20396;-67
2022/03/26 08:42:09;;;;;;;23.15;8.45;;;9.50;62.70;;;;;;4994283;28;20945;-69
2022/03/26 08:44:36;;;;;;;24.63;9.70;;;9.70;62.00;;;;;;4998877;28;20077;-69
2022/03/26 08:47:05;;;;;;;20.60;8.93;;;9.80;61.50;;;;;;5000994;28;20048;-68
2022/03/26 08:49:33;;;;;;;20.77;9.10;;;9.90;61.50;;;;;;4996252;28;20042;-68
2022/03/26 08:52:00;;;;;;;20.83;8.32;;;10.00;61.40;;;;;;4981488;28;20061;-69
2022/03/26 08:54:27;;;;;;;20.83;8.85;;;10.00;61.50;;;;;;4996943;28;20042;-69
2022/03/26 08:56:56;;;;;;;21.88;9.70;;;10.10;61.10;;;;;;4997861;28;20956;-68
2022/03/26 08:59:23;;;;;;;21.48;9.70;;;10.30;61.00;;;;;;5001385;28;20120;-67
2022/03/26 09:01:51;;;;;;;20.58;9.07;;;10.40;60.80;;;;;;5001996;28;20072;-68
2022/03/26 09:04:18;;;;;;;20.77;9.05;;;10.50;60.60;;;;;;5002478;28;20399;-67
2022/03/26 09:06:45;;;;;;;25.38;10.45;;;10.50;60.30;;;;;;5002456;28;20123;-68
2022/03/26 09:09:14;;;;;;;22.92;8.60;;;10.60;60.00;;;;;;5001815;28;20045;-67
2022/03/26 09:11:43;;;;;;;23.98;9.05;;;10.70;60.10;;;;;;5002228;28;20053;-68
2022/03/26 09:14:13;;;;;;;22.85;10.20;;;10.80;59.70;;;;;;5003370;28;20495;-66
2022/03/26 09:16:40;;;;;;;24.23;9.70;;;10.90;60.10;;;;;;4995082;28;20076;-68
2022/03/26 09:19:07;;;;;;;26.02;9.75;;;10.90;60.00;;;;;;4996370;28;20589;-68
2022/03/26 09:21:34;;;;;;;22.85;9.18;;;11.10;60.10;;;;;;4997631;28;20054;-68
2022/03/26 09:24:01;;;;;;;22.10;10.30;;;11.10;59.70;;;;;;4996206;28;20074;-68
2022/03/26 09:26:27;;;;;;;23.13;9.07;;;11.20;59.60;;;;;;4995991;28;20046;-67
2022/03/26 09:28:54;;;;;;;23.90;10.02;;;11.30;59.40;;;;;;4997607;28;20073;-67
2022/03/26 09:31:23;;;;;;;21.42;10.38;;;11.40;59.10;;;;;;4998751;28;20089;-69
2022/03/26 09:33:50;;;;;;;21.40;9.93;;;11.50;59.00;;;;;;4996068;28;20053;-68
2022/03/26 09:36:17;;;;;;;20.42;8.85;;;11.60;59.20;;;;;;4997146;28;20488;-67
2022/03/26 09:38:44;;;;;;;22.13;8.90;;;11.70;58.80;;;;;;4996098;28;20416;-68
2022/03/26 09:41:11;;;;;;;20.67;9.13;;;11.80;58.30;;;;;;4979999;28;20065;-68
2022/03/26 09:43:39;;;;;;;22.85;9.70;;;11.90;58.70;;;;;;4995913;28;20052;-67
2022/03/26 09:46:06;;;;;;;17.45;8.80;;;12.00;58.60;;;;;;4997384;28;20054;-68
2022/03/26 09:48:37;;;;;;;21.67;9.40;;;12.00;58.50;;;;;;4992940;28;20050;-71
2022/03/26 09:51:05;;;;;;;22.65;8.95;;;12.20;58.10;;;;;;4995610;28;20045;-68
2022/03/26 09:53:32;;;;;;;23.08;9.43;;;12.20;57.90;;;;;;4992849;28;20128;-68
2022/03/26 09:55:59;;;;;;;25.98;10.43;;;12.40;57.00;;;;;;4994937;28;20630;-68
2022/03/26 09:58:26;;;;;;;20.88;10.02;;;12.50;57.20;;;;;;4994751;28;20246;-67
2022/03/26 10:00:53;;;;;;;20.17;9.05;;;12.50;56.60;;;;;;4982591;28;20137;-67
2022/03/26 10:03:20;;;;;;;20.38;8.85;;;12.50;56.40;;;;;;4997990;28;20085;-69
2022/03/26 10:05:49;;;;;;;18.13;8.30;;;12.60;56.70;;;;;;5002380;28;20476;-68
2022/03/26 10:08:22;;;;;;;23.17;8.52;;;12.70;56.60;;;;;;5000832;28;20120;-68
2022/03/26 10:10:51;;;;;;;23.95;10.50;;;12.70;56.30;;;;;;4999246;28;20396;-68
2022/03/26 10:13:38;;;;;;;20.15;7.80;;;12.80;55.60;;;;;;4996594;28;20523;-69
2022/03/26 10:16:07;;;;;;;14.85;7.15;;;12.90;56.00;;;;;;4996805;28;20044;-68
2022/03/26 10:18:38;;;;;;;17.73;7.60;;;13.00;55.50;;;;;;4996045;28;20551;-69
2022/03/26 10:21:09;;;;;;;15.80;7.75;;;13.10;55.40;;;;;;4996644;28;20050;-67
2022/03/26 10:23:37;;;;;;;15.73;7.32;;;13.10;55.00;;;;;;4996083;28;20116;-68
2022/03/26 10:26:09;;;;;;;18.10;8.70;;;13.20;55.50;;;;;;4982111;28;20037;-69
2022/03/26 10:28:36;;;;;;;18.25;7.70;;;13.30;54.80;;;;;;4996997;28;20034;-68
2022/03/26 10:34:10;;;;;;;17.80;7.72;;;13.40;54.70;;;;;;4995067;28;20056;-69
2022/03/26 10:36:40;;;;;;;15.65;6.93;;;13.40;54.50;;;;;;4993523;28;20038;-68
2022/03/26 10:39:13;;;;;;;17.58;8.70;;;13.50;54.80;;;;;;4998417;28;20056;-67
2022/03/26 10:41:40;;;;;;;21.63;8.05;;;13.60;54.80;;;;;;4995121;28;20394;-69
2022/03/26 10:44:09;;;;;;;18.48;7.72;;;13.60;54.60;;;;;;4996626;28;20042;-69
2022/03/26 10:46:44;;;;;;;15.40;7.30;;;13.60;54.40;;;;;;4999165;28;20046;-68
2022/03/26 10:49:12;;;;;;;15.50;7.97;;;13.70;54.30;;;;;;4997224;28;20050;-69
2022/03/26 10:51:42;;;;;;;16.98;7.80;;;13.70;54.10;;;;;;4994063;28;20471;-68
2022/03/26 10:54:12;;;;;;;17.80;8.15;;;13.70;54.30;;;;;;4982638;28;20077;-67
2022/03/26 10:56:40;;;;;;;20.10;8.75;;;13.80;54.20;;;;;;4995765;28;20046;-69
2022/03/26 10:59:08;;;;;;;18.70;8.73;;;13.90;53.90;;;;;;4995370;28;20088;-68
2022/03/26 11:01:35;;;;;;;16.00;6.47;;;13.90;53.80;;;;;;4992538;28;20054;-69
2022/03/26 11:04:03;;;;;;;18.00;7.78;;;14.00;53.50;;;;;;4997039;28;20050;-68
2022/03/26 11:06:34;;;;;;;14.63;7.18;;;14.00;53.30;;;;;;4997082;28;20042;-69
2022/03/26 11:09:03;;;;;;;15.90;7.45;;;14.10;53.20;;;;;;4996932;28;20126;-67
2022/03/26 11:11:30;;;;;;;15.37;6.93;;;14.10;53.50;;;;;;5000290;28;20178;-67
2022/03/26 11:14:01;;;;;;;14.45;7.20;;;14.10;53.10;;;;;;4998716;28;20046;-67
2022/03/26 11:16:42;;;;;;;13.57;7.00;;;14.10;53.10;;;;;;4998076;28;20046;-69
2022/03/26 11:19:18;;;;;;;13.48;6.55;;;14.20;52.90;;;;;;4999316;28;20163;-69
2022/03/26 11:22:08;;;;;;;15.55;6.55;;;14.20;52.70;;;;;;5000882;28;20618;-66
2022/03/26 11:24:57;;;;;;;;;;;14.20;52.60;;;;;;5002719;28;20173;-68
2022/03/26 11:27:56;;;;;;;16.48;6.50;;;14.30;52.80;;;;;;5003227;28;20020;-69
2022/03/26 11:30:33;;;;;;;15.30;6.72;;;14.30;52.90;;;;;;5000077;28;20116;-68
2022/03/26 11:33:10;;;;;;;14.23;6.03;;;14.30;52.50;;;;;;4997063;28;20042;-67
2022/03/26 11:35:50;;;;;;;14.75;6.57;;;14.40;52.60;;;;;;4999057;28;20047;-69
2022/03/26 11:38:17;;;;;;;13.80;5.78;;;14.40;52.70;;;;;;4994867;28;20049;-68
2022/03/26 11:40:49;;;;;;;16.35;6.70;;;14.40;52.50;;;;;;4994851;28;22048;-68
2022/03/26 11:43:18;;;;;;;11.98;6.00;;;14.40;52.40;;;;;;4996779;28;20496;-67
2022/03/26 11:51:25;;;;;;;10.02;5.68;;;14.50;52.20;;;;;;4995268;28;20176;-68
2022/03/26 11:53:58;;;;;;;12.38;5.75;;;14.50;52.20;;;;;;4995461;28;20046;-69
2022/03/26 11:56:30;;;;;;;13.70;6.45;;;14.50;51.60;;;;;;4997026;28;20409;-68
2022/03/26 11:59:27;;;;;;;12.30;5.53;;;14.50;51.70;;;;;;4995235;28;20049;-69
2022/03/26 12:01:54;;;;;;;15.57;7.65;;;14.60;51.90;;;;;;4995895;28;20045;-68
2022/03/26 12:04:26;;;;;;;21.52;7.95;;;14.60;51.40;;;;;;4998862;28;21763;-67
2022/03/26 12:06:57;;;;;;;16.38;6.82;;;14.60;51.60;;;;;;4997703;28;20496;-67
2022/03/26 12:09:32;;;;;;;14.63;5.63;;;14.60;51.60;;;;;;4997973;28;20488;-67
2022/03/26 12:12:19;;;;;;;13.00;6.15;;;14.60;51.70;;;;;;4994848;28;20048;-68
2022/03/26 12:15:25;;;;;;;14.55;6.82;;;14.60;51.80;;;;;;4998611;28;20136;-69
2022/03/26 12:17:54;;;;;;;21.10;7.15;;;14.60;51.70;;;;;;4998896;28;20042;-67
2022/03/26 12:20:24;;;;;;;17.20;7.05;;;14.60;51.20;;;;;;4997519;28;20050;-68
2022/03/26 12:22:52;;;;;;;;;;;14.60;51.20;;;;;;4997566;28;20055;-69
2022/03/26 12:25:32;;;;;;;13.40;6.70;;;14.60;51.10;;;;;;4997082;28;19932;-68
2022/03/26 12:28:00;;;;;;;15.18;6.75;;;14.60;51.10;;;;;;4980481;28;20141;-68
2022/03/26 12:30:27;;;;;;;13.05;6.40;;;14.60;51.10;;;;;;4997618;28;20050;-67
2022/03/26 12:32:55;;;;;;;13.77;5.75;;;14.60;51.00;;;;;;4995833;28;20034;-67
2022/03/26 12:35:22;;;;;;;17.55;6.90;;;14.70;50.70;;;;;;4994930;28;20052;-68
2022/03/26 12:37:51;;;;;;;11.82;5.35;;;14.70;50.40;;;;;;4999724;28;20135;-68
2022/03/26 12:40:18;;;;;;;15.60;6.00;;;14.60;50.50;;;;;;4996453;28;20431;-68
2022/03/26 12:42:51;;;;;;;13.23;6.18;;;14.60;50.60;;;;;;4996013;28;20069;-70
2022/03/26 12:45:20;;;;;;;12.93;6.18;;;14.60;50.60;;;;;;4999203;28;20048;-67
2022/03/26 12:47:49;;;;;;;15.40;6.10;;;14.60;50.60;;;;;;4993106;28;20152;-67
2022/03/26 12:50:19;;;;;;;14.55;5.63;;;14.60;50.70;;;;;;4994806;28;20045;-68
2022/03/26 12:52:46;;;;;;;13.57;5.75;;;14.60;50.70;;;;;;4995522;28;20047;-67
2022/03/26 12:55:13;;;;;;;14.52;6.32;;;14.60;50.70;;;;;;4995941;28;20595;-68
2022/03/26 13:00:32;;;;;;;15.43;5.68;;;14.60;50.80;;;;;;4998703;28;20648;-67